sensor_id;sensor_type;location;lat;lon;timestamp;P1;durP1;ratioP1;P2;durP2;ratioP2
81864;SDS011;71313;43.514;1.500;2023-09-07T00:00:46;3.20;;;2.50;;
81864;SDS011;71313;43.514;1.500;2023-09-07T00:03:12;3.00;;;2.20;;
81864;SDS011;71313;43.514;1.500;2023-09-07T00:05:38;3.88;;;2.80;;
81864;SDS011;71313;43.514;1.500;2023-09-07T00:08:04;3.70;;;2.70;;
81864;SDS011;71313;43.514;1.500;2023-09-07T00:10:29;4.22;;;2.88;;
81864;SDS011;71313;43.514;1.500;2023-09-07T00:12:55;4.00;;;2.50;;
81864;SDS011;71313;43.514;1.500;2023-09-07T00:15:20;3.72;;;2.50;;
81864;SDS011;71313;43.514;1.500;2023-09-07T00:17:46;4.13;;;2.30;;
81864;SDS011;71313;43.514;1.500;2023-09-07T00:20:11;6.68;;;4.22;;
81864;SDS011;71313;43.514;1.500;2023-09-07T00:22:39;10.32;;;5.78;;
81864;SDS011;71313;43.514;1.500;2023-09-07T00:25:04;15.15;;;8.43;;
81864;SDS011;71313;43.514;1.500;2023-09-07T00:27:32;17.85;;;9.98;;
81864;SDS011;71313;43.514;1.500;2023-09-07T00:30:01;15.20;;;8.13;;
81864;SDS011;71313;43.514;1.500;2023-09-07T00:32:30;18.05;;;9.63;;
81864;SDS011;71313;43.514;1.500;2023-09-07T00:34:57;20.17;;;11.10;;
81864;SDS011;71313;43.514;1.500;2023-09-07T00:37:22;18.80;;;11.60;;
81864;SDS011;71313;43.514;1.500;2023-09-07T00:39:47;16.85;;;9.55;;
81864;SDS011;71313;43.514;1.500;2023-09-07T00:42:13;14.27;;;8.07;;
81864;SDS011;71313;43.514;1.500;2023-09-07T00:44:38;12.80;;;7.45;;
81864;SDS011;71313;43.514;1.500;2023-09-07T00:47:03;8.50;;;5.70;;
81864;SDS011;71313;43.514;1.500;2023-09-07T00:49:30;10.75;;;6.53;;
81864;SDS011;71313;43.514;1.500;2023-09-07T00:51:56;9.10;;;5.15;;
81864;SDS011;71313;43.514;1.500;2023-09-07T00:54:22;8.55;;;5.85;;
81864;SDS011;71313;43.514;1.500;2023-09-07T00:56:48;8.35;;;5.30;;
81864;SDS011;71313;43.514;1.500;2023-09-07T00:59:14;6.68;;;4.45;;
81864;SDS011;71313;43.514;1.500;2023-09-07T01:01:39;7.88;;;4.90;;
81864;SDS011;71313;43.514;1.500;2023-09-07T01:04:05;7.22;;;4.35;;
81864;SDS011;71313;43.514;1.500;2023-09-07T01:07:06;6.22;;;4.28;;
81864;SDS011;71313;43.514;1.500;2023-09-07T01:09:28;6.43;;;4.20;;
81864;SDS011;71313;43.514;1.500;2023-09-07T01:11:57;6.43;;;4.10;;
81864;SDS011;71313;43.514;1.500;2023-09-07T01:14:22;7.30;;;4.20;;
81864;SDS011;71313;43.514;1.500;2023-09-07T01:16:48;5.95;;;4.20;;
81864;SDS011;71313;43.514;1.500;2023-09-07T01:19:14;6.28;;;4.32;;
81864;SDS011;71313;43.514;1.500;2023-09-07T01:21:40;5.90;;;4.20;;
81864;SDS011;71313;43.514;1.500;2023-09-07T01:24:08;6.80;;;4.38;;
81864;SDS011;71313;43.514;1.500;2023-09-07T01:26:35;7.85;;;4.20;;
81864;SDS011;71313;43.514;1.500;2023-09-07T01:29:07;5.80;;;3.83;;
81864;SDS011;71313;43.514;1.500;2023-09-07T01:31:36;6.95;;;4.00;;
81864;SDS011;71313;43.514;1.500;2023-09-07T01:34:03;5.57;;;3.70;;
81864;SDS011;71313;43.514;1.500;2023-09-07T01:36:29;5.50;;;3.88;;
81864;SDS011;71313;43.514;1.500;2023-09-07T01:38:54;5.47;;;4.05;;
81864;SDS011;71313;43.514;1.500;2023-09-07T01:41:20;4.63;;;3.28;;
81864;SDS011;71313;43.514;1.500;2023-09-07T01:43:45;5.00;;;3.25;;
81864;SDS011;71313;43.514;1.500;2023-09-07T01:46:10;5.57;;;3.90;;
81864;SDS011;71313;43.514;1.500;2023-09-07T01:48:36;5.75;;;3.70;;
81864;SDS011;71313;43.514;1.500;2023-09-07T01:51:01;5.25;;;3.40;;
81864;SDS011;71313;43.514;1.500;2023-09-07T01:53:27;5.25;;;3.42;;
81864;SDS011;71313;43.514;1.500;2023-09-07T01:55:55;5.03;;;3.20;;
81864;SDS011;71313;43.514;1.500;2023-09-07T01:58:21;5.53;;;3.40;;
81864;SDS011;71313;43.514;1.500;2023-09-07T02:00:46;4.28;;;3.35;;
81864;SDS011;71313;43.514;1.500;2023-09-07T02:03:12;4.85;;;3.17;;
81864;SDS011;71313;43.514;1.500;2023-09-07T02:05:37;5.05;;;3.15;;
81864;SDS011;71313;43.514;1.500;2023-09-07T02:08:04;4.40;;;2.90;;
81864;SDS011;71313;43.514;1.500;2023-09-07T02:10:30;4.68;;;2.85;;
81864;SDS011;71313;43.514;1.500;2023-09-07T02:12:55;4.40;;;3.10;;
81864;SDS011;71313;43.514;1.500;2023-09-07T02:15:22;4.35;;;2.97;;
81864;SDS011;71313;43.514;1.500;2023-09-07T02:17:48;4.32;;;3.17;;
81864;SDS011;71313;43.514;1.500;2023-09-07T02:20:14;3.25;;;2.70;;
81864;SDS011;71313;43.514;1.500;2023-09-07T02:22:39;4.43;;;3.13;;
81864;SDS011;71313;43.514;1.500;2023-09-07T02:25:05;3.90;;;2.72;;
81864;SDS011;71313;43.514;1.500;2023-09-07T02:27:31;4.88;;;3.13;;
81864;SDS011;71313;43.514;1.500;2023-09-07T02:29:57;4.72;;;3.08;;
81864;SDS011;71313;43.514;1.500;2023-09-07T02:32:23;4.25;;;3.00;;
81864;SDS011;71313;43.514;1.500;2023-09-07T02:34:48;4.00;;;2.80;;
81864;SDS011;71313;43.514;1.500;2023-09-07T02:37:13;4.20;;;2.75;;
81864;SDS011;71313;43.514;1.500;2023-09-07T02:39:41;4.38;;;2.97;;
81864;SDS011;71313;43.514;1.500;2023-09-07T02:42:06;4.05;;;2.60;;
81864;SDS011;71313;43.514;1.500;2023-09-07T02:44:32;3.78;;;2.70;;
81864;SDS011;71313;43.514;1.500;2023-09-07T02:46:57;3.88;;;2.90;;
81864;SDS011;71313;43.514;1.500;2023-09-07T02:49:23;3.83;;;2.70;;
81864;SDS011;71313;43.514;1.500;2023-09-07T02:51:48;3.95;;;2.70;;
81864;SDS011;71313;43.514;1.500;2023-09-07T02:54:13;4.80;;;3.10;;
81864;SDS011;71313;43.514;1.500;2023-09-07T02:56:39;4.32;;;2.65;;
81864;SDS011;71313;43.514;1.500;2023-09-07T02:59:04;5.18;;;2.85;;
81864;SDS011;71313;43.514;1.500;2023-09-07T03:01:30;4.82;;;2.65;;
81864;SDS011;71313;43.514;1.500;2023-09-07T03:03:56;3.30;;;2.70;;
81864;SDS011;71313;43.514;1.500;2023-09-07T03:06:21;3.33;;;2.70;;
81864;SDS011;71313;43.514;1.500;2023-09-07T03:08:46;4.03;;;2.80;;
81864;SDS011;71313;43.514;1.500;2023-09-07T03:11:12;3.60;;;2.38;;
81864;SDS011;71313;43.514;1.500;2023-09-07T03:13:38;4.60;;;2.80;;
81864;SDS011;71313;43.514;1.500;2023-09-07T03:16:03;3.42;;;2.63;;
81864;SDS011;71313;43.514;1.500;2023-09-07T03:18:29;4.00;;;2.67;;
81864;SDS011;71313;43.514;1.500;2023-09-07T03:20:55;3.20;;;2.42;;
81864;SDS011;71313;43.514;1.500;2023-09-07T03:23:23;3.97;;;2.70;;
81864;SDS011;71313;43.514;1.500;2023-09-07T03:25:49;3.17;;;2.50;;
81864;SDS011;71313;43.514;1.500;2023-09-07T03:28:14;4.57;;;2.88;;
81864;SDS011;71313;43.514;1.500;2023-09-07T03:30:40;3.50;;;2.50;;
81864;SDS011;71313;43.514;1.500;2023-09-07T03:33:05;4.03;;;2.67;;
81864;SDS011;71313;43.514;1.500;2023-09-07T03:35:31;4.30;;;2.33;;
81864;SDS011;71313;43.514;1.500;2023-09-07T03:37:57;4.13;;;2.53;;
81864;SDS011;71313;43.514;1.500;2023-09-07T03:40:22;3.15;;;2.30;;
81864;SDS011;71313;43.514;1.500;2023-09-07T03:42:48;4.30;;;2.30;;
81864;SDS011;71313;43.514;1.500;2023-09-07T03:45:13;2.85;;;2.40;;
81864;SDS011;71313;43.514;1.500;2023-09-07T03:47:39;3.17;;;2.25;;
81864;SDS011;71313;43.514;1.500;2023-09-07T03:50:04;3.20;;;2.30;;
81864;SDS011;71313;43.514;1.500;2023-09-07T03:52:31;2.80;;;2.22;;
81864;SDS011;71313;43.514;1.500;2023-09-07T03:54:56;3.20;;;2.50;;
81864;SDS011;71313;43.514;1.500;2023-09-07T03:57:22;3.17;;;2.30;;
81864;SDS011;71313;43.514;1.500;2023-09-07T03:59:49;3.33;;;2.55;;
81864;SDS011;71313;43.514;1.500;2023-09-07T04:02:14;3.53;;;2.38;;
81864;SDS011;71313;43.514;1.500;2023-09-07T04:04:40;3.53;;;2.55;;
81864;SDS011;71313;43.514;1.500;2023-09-07T04:07:06;3.47;;;2.70;;
81864;SDS011;71313;43.514;1.500;2023-09-07T04:09:31;3.50;;;2.15;;
81864;SDS011;71313;43.514;1.500;2023-09-07T04:11:57;3.55;;;2.50;;
81864;SDS011;71313;43.514;1.500;2023-09-07T04:14:22;3.97;;;2.70;;
81864;SDS011;71313;43.514;1.500;2023-09-07T04:16:47;3.17;;;2.35;;
81864;SDS011;71313;43.514;1.500;2023-09-07T04:19:13;2.97;;;2.40;;
81864;SDS011;71313;43.514;1.500;2023-09-07T04:21:39;2.85;;;2.25;;
81864;SDS011;71313;43.514;1.500;2023-09-07T04:24:04;3.92;;;2.25;;
81864;SDS011;71313;43.514;1.500;2023-09-07T04:26:30;4.57;;;2.53;;
81864;SDS011;71313;43.514;1.500;2023-09-07T04:28:55;3.00;;;2.50;;
81864;SDS011;71313;43.514;1.500;2023-09-07T04:31:21;2.88;;;2.28;;
81864;SDS011;71313;43.514;1.500;2023-09-07T04:33:46;3.15;;;2.20;;
81864;SDS011;71313;43.514;1.500;2023-09-07T04:36:13;3.70;;;2.40;;
81864;SDS011;71313;43.514;1.500;2023-09-07T04:38:39;2.92;;;2.20;;
81864;SDS011;71313;43.514;1.500;2023-09-07T04:41:12;3.22;;;2.28;;
81864;SDS011;71313;43.514;1.500;2023-09-07T04:43:39;3.38;;;2.30;;
81864;SDS011;71313;43.514;1.500;2023-09-07T04:46:11;3.78;;;2.40;;
81864;SDS011;71313;43.514;1.500;2023-09-07T04:48:37;2.38;;;2.15;;
81864;SDS011;71313;43.514;1.500;2023-09-07T04:51:04;3.60;;;2.40;;
81864;SDS011;71313;43.514;1.500;2023-09-07T04:53:31;3.13;;;2.60;;
81864;SDS011;71313;43.514;1.500;2023-09-07T04:55:59;3.33;;;2.80;;
81864;SDS011;71313;43.514;1.500;2023-09-07T04:58:25;2.95;;;2.22;;
81864;SDS011;71313;43.514;1.500;2023-09-07T05:00:51;4.05;;;2.33;;
81864;SDS011;71313;43.514;1.500;2023-09-07T05:03:17;3.25;;;2.58;;
81864;SDS011;71313;43.514;1.500;2023-09-07T05:05:42;3.20;;;2.28;;
81864;SDS011;71313;43.514;1.500;2023-09-07T05:08:08;3.45;;;2.30;;
81864;SDS011;71313;43.514;1.500;2023-09-07T05:10:34;3.08;;;2.30;;
81864;SDS011;71313;43.514;1.500;2023-09-07T05:13:00;2.90;;;2.20;;
81864;SDS011;71313;43.514;1.500;2023-09-07T05:15:26;2.90;;;2.25;;
81864;SDS011;71313;43.514;1.500;2023-09-07T05:17:52;3.65;;;2.30;;
81864;SDS011;71313;43.514;1.500;2023-09-07T05:20:18;3.55;;;2.30;;
81864;SDS011;71313;43.514;1.500;2023-09-07T05:22:43;4.40;;;2.53;;
81864;SDS011;71313;43.514;1.500;2023-09-07T05:25:09;2.97;;;2.30;;
81864;SDS011;71313;43.514;1.500;2023-09-07T05:27:35;3.25;;;2.60;;
81864;SDS011;71313;43.514;1.500;2023-09-07T05:30:01;4.50;;;2.63;;
81864;SDS011;71313;43.514;1.500;2023-09-07T05:32:27;3.00;;;2.40;;
81864;SDS011;71313;43.514;1.500;2023-09-07T05:34:52;3.85;;;2.58;;
81864;SDS011;71313;43.514;1.500;2023-09-07T05:37:18;3.65;;;2.33;;
81864;SDS011;71313;43.514;1.500;2023-09-07T05:39:43;3.47;;;2.47;;
81864;SDS011;71313;43.514;1.500;2023-09-07T05:42:08;3.15;;;2.53;;
81864;SDS011;71313;43.514;1.500;2023-09-07T05:44:34;3.58;;;2.50;;
81864;SDS011;71313;43.514;1.500;2023-09-07T05:46:59;4.55;;;2.63;;
81864;SDS011;71313;43.514;1.500;2023-09-07T05:49:24;3.40;;;2.63;;
81864;SDS011;71313;43.514;1.500;2023-09-07T05:51:50;3.47;;;2.63;;
81864;SDS011;71313;43.514;1.500;2023-09-07T05:54:15;5.22;;;2.75;;
81864;SDS011;71313;43.514;1.500;2023-09-07T05:56:41;4.20;;;2.40;;
81864;SDS011;71313;43.514;1.500;2023-09-07T05:59:06;6.55;;;2.88;;
81864;SDS011;71313;43.514;1.500;2023-09-07T06:01:32;4.93;;;2.78;;
81864;SDS011;71313;43.514;1.500;2023-09-07T06:03:58;5.07;;;3.05;;
81864;SDS011;71313;43.514;1.500;2023-09-07T06:06:23;4.07;;;2.65;;
81864;SDS011;71313;43.514;1.500;2023-09-07T06:08:49;5.93;;;2.90;;
81864;SDS011;71313;43.514;1.500;2023-09-07T06:11:15;4.60;;;2.80;;
81864;SDS011;71313;43.514;1.500;2023-09-07T06:13:42;4.15;;;2.60;;
81864;SDS011;71313;43.514;1.500;2023-09-07T06:16:07;5.05;;;2.88;;
81864;SDS011;71313;43.514;1.500;2023-09-07T06:18:33;4.95;;;2.80;;
81864;SDS011;71313;43.514;1.500;2023-09-07T06:20:58;4.40;;;2.50;;
81864;SDS011;71313;43.514;1.500;2023-09-07T06:23:23;3.83;;;2.58;;
81864;SDS011;71313;43.514;1.500;2023-09-07T06:25:49;4.25;;;2.60;;
81864;SDS011;71313;43.514;1.500;2023-09-07T06:28:14;6.25;;;2.90;;
81864;SDS011;71313;43.514;1.500;2023-09-07T06:30:39;3.80;;;2.20;;
81864;SDS011;71313;43.514;1.500;2023-09-07T06:33:05;4.25;;;2.63;;
81864;SDS011;71313;43.514;1.500;2023-09-07T06:35:30;5.35;;;2.72;;
81864;SDS011;71313;43.514;1.500;2023-09-07T06:37:56;5.70;;;2.78;;
81864;SDS011;71313;43.514;1.500;2023-09-07T06:40:22;4.30;;;2.50;;
81864;SDS011;71313;43.514;1.500;2023-09-07T06:42:47;5.63;;;2.47;;
81864;SDS011;71313;43.514;1.500;2023-09-07T06:45:13;4.35;;;2.45;;
81864;SDS011;71313;43.514;1.500;2023-09-07T06:47:38;5.18;;;2.40;;
81864;SDS011;71313;43.514;1.500;2023-09-07T06:50:04;4.53;;;2.40;;
81864;SDS011;71313;43.514;1.500;2023-09-07T06:52:30;4.55;;;2.50;;
81864;SDS011;71313;43.514;1.500;2023-09-07T06:54:56;4.50;;;2.45;;
81864;SDS011;71313;43.514;1.500;2023-09-07T06:57:21;6.88;;;2.65;;
81864;SDS011;71313;43.514;1.500;2023-09-07T06:59:47;6.25;;;2.72;;
81864;SDS011;71313;43.514;1.500;2023-09-07T07:02:13;7.88;;;2.58;;
81864;SDS011;71313;43.514;1.500;2023-09-07T07:04:38;5.93;;;2.67;;
81864;SDS011;71313;43.514;1.500;2023-09-07T07:07:04;8.95;;;2.80;;
81864;SDS011;71313;43.514;1.500;2023-09-07T07:09:31;6.57;;;2.85;;
81864;SDS011;71313;43.514;1.500;2023-09-07T07:11:58;11.00;;;3.17;;
81864;SDS011;71313;43.514;1.500;2023-09-07T07:14:26;4.15;;;2.03;;
81864;SDS011;71313;43.514;1.500;2023-09-07T07:16:51;3.58;;;2.05;;
81864;SDS011;71313;43.514;1.500;2023-09-07T07:19:17;4.78;;;2.40;;
81864;SDS011;71313;43.514;1.500;2023-09-07T07:21:42;3.35;;;2.20;;
81864;SDS011;71313;43.514;1.500;2023-09-07T07:24:07;5.28;;;2.38;;
81864;SDS011;71313;43.514;1.500;2023-09-07T07:26:34;2.85;;;2.25;;
81864;SDS011;71313;43.514;1.500;2023-09-07T07:28:59;4.07;;;2.50;;
81864;SDS011;71313;43.514;1.500;2023-09-07T07:31:25;5.75;;;2.28;;
81864;SDS011;71313;43.514;1.500;2023-09-07T07:33:50;3.72;;;2.03;;
81864;SDS011;71313;43.514;1.500;2023-09-07T07:36:16;4.07;;;2.47;;
81864;SDS011;71313;43.514;1.500;2023-09-07T07:38:41;4.82;;;2.20;;
81864;SDS011;71313;43.514;1.500;2023-09-07T07:41:07;3.42;;;2.08;;
81864;SDS011;71313;43.514;1.500;2023-09-07T07:43:32;6.15;;;2.42;;
81864;SDS011;71313;43.514;1.500;2023-09-07T07:45:58;5.43;;;2.28;;
81864;SDS011;71313;43.514;1.500;2023-09-07T07:48:24;2.90;;;2.10;;
81864;SDS011;71313;43.514;1.500;2023-09-07T07:50:50;3.58;;;2.20;;
81864;SDS011;71313;43.514;1.500;2023-09-07T07:53:15;3.20;;;2.35;;
81864;SDS011;71313;43.514;1.500;2023-09-07T07:55:41;3.10;;;2.20;;
81864;SDS011;71313;43.514;1.500;2023-09-07T07:58:10;4.22;;;2.15;;
81864;SDS011;71313;43.514;1.500;2023-09-07T08:00:36;4.72;;;2.47;;
81864;SDS011;71313;43.514;1.500;2023-09-07T08:03:02;4.78;;;2.17;;
81864;SDS011;71313;43.514;1.500;2023-09-07T08:05:28;4.07;;;2.00;;
81864;SDS011;71313;43.514;1.500;2023-09-07T08:07:54;3.75;;;2.10;;
81864;SDS011;71313;43.514;1.500;2023-09-07T08:10:21;4.63;;;2.50;;
81864;SDS011;71313;43.514;1.500;2023-09-07T08:12:47;3.35;;;2.35;;
81864;SDS011;71313;43.514;1.500;2023-09-07T08:15:12;3.90;;;2.40;;
81864;SDS011;71313;43.514;1.500;2023-09-07T08:17:39;3.88;;;2.05;;
81864;SDS011;71313;43.514;1.500;2023-09-07T08:20:05;4.45;;;2.60;;
81864;SDS011;71313;43.514;1.500;2023-09-07T08:22:32;4.95;;;2.35;;
81864;SDS011;71313;43.514;1.500;2023-09-07T08:25:01;4.60;;;2.55;;
81864;SDS011;71313;43.514;1.500;2023-09-07T08:27:27;4.60;;;2.50;;
81864;SDS011;71313;43.514;1.500;2023-09-07T08:29:52;4.47;;;2.38;;
81864;SDS011;71313;43.514;1.500;2023-09-07T08:32:18;3.30;;;2.30;;
81864;SDS011;71313;43.514;1.500;2023-09-07T08:34:44;3.95;;;2.47;;
81864;SDS011;71313;43.514;1.500;2023-09-07T08:37:09;4.18;;;2.22;;
81864;SDS011;71313;43.514;1.500;2023-09-07T08:39:35;4.00;;;2.10;;
81864;SDS011;71313;43.514;1.500;2023-09-07T08:42:04;6.47;;;2.20;;
81864;SDS011;71313;43.514;1.500;2023-09-07T08:44:30;5.47;;;2.58;;
81864;SDS011;71313;43.514;1.500;2023-09-07T08:46:59;4.38;;;2.33;;
81864;SDS011;71313;43.514;1.500;2023-09-07T08:49:26;5.38;;;2.30;;
81864;SDS011;71313;43.514;1.500;2023-09-07T08:51:52;5.32;;;2.78;;
81864;SDS011;71313;43.514;1.500;2023-09-07T08:54:18;5.82;;;2.78;;
81864;SDS011;71313;43.514;1.500;2023-09-07T08:56:44;5.75;;;2.65;;
81864;SDS011;71313;43.514;1.500;2023-09-07T08:59:11;5.22;;;2.92;;
81864;SDS011;71313;43.514;1.500;2023-09-07T09:01:37;4.85;;;2.85;;
81864;SDS011;71313;43.514;1.500;2023-09-07T09:04:03;5.35;;;2.60;;
81864;SDS011;71313;43.514;1.500;2023-09-07T09:06:28;5.65;;;2.70;;
81864;SDS011;71313;43.514;1.500;2023-09-07T09:08:54;8.55;;;3.35;;
81864;SDS011;71313;43.514;1.500;2023-09-07T09:11:22;4.43;;;3.05;;
81864;SDS011;71313;43.514;1.500;2023-09-07T09:13:48;6.68;;;3.25;;
81864;SDS011;71313;43.514;1.500;2023-09-07T09:16:15;5.32;;;2.50;;
81864;SDS011;71313;43.514;1.500;2023-09-07T09:19:14;6.55;;;2.85;;
81864;SDS011;71313;43.514;1.500;2023-09-07T09:21:34;6.68;;;2.85;;
81864;SDS011;71313;43.514;1.500;2023-09-07T09:23:59;4.97;;;2.80;;
81864;SDS011;71313;43.514;1.500;2023-09-07T09:26:25;7.70;;;2.97;;
81864;SDS011;71313;43.514;1.500;2023-09-07T09:28:50;6.20;;;2.60;;
81864;SDS011;71313;43.514;1.500;2023-09-07T09:31:17;5.63;;;2.55;;
81864;SDS011;71313;43.514;1.500;2023-09-07T09:33:47;4.15;;;2.72;;
81864;SDS011;71313;43.514;1.500;2023-09-07T09:36:13;6.22;;;2.65;;
81864;SDS011;71313;43.514;1.500;2023-09-07T09:38:39;2.97;;;2.25;;
81864;SDS011;71313;43.514;1.500;2023-09-07T09:41:05;4.25;;;2.60;;
81864;SDS011;71313;43.514;1.500;2023-09-07T09:43:31;3.53;;;2.47;;
81864;SDS011;71313;43.514;1.500;2023-09-07T09:45:56;4.38;;;2.38;;
81864;SDS011;71313;43.514;1.500;2023-09-07T09:48:23;5.20;;;2.45;;
81864;SDS011;71313;43.514;1.500;2023-09-07T09:50:49;4.28;;;2.25;;
81864;SDS011;71313;43.514;1.500;2023-09-07T09:53:15;4.45;;;2.30;;
81864;SDS011;71313;43.514;1.500;2023-09-07T09:55:46;7.93;;;2.55;;
81864;SDS011;71313;43.514;1.500;2023-09-07T09:58:13;7.20;;;3.55;;
81864;SDS011;71313;43.514;1.500;2023-09-07T10:00:40;8.32;;;4.57;;
81864;SDS011;71313;43.514;1.500;2023-09-07T10:03:10;11.27;;;5.78;;
81864;SDS011;71313;43.514;1.500;2023-09-07T10:05:39;13.30;;;6.82;;
81864;SDS011;71313;43.514;1.500;2023-09-07T10:08:08;14.77;;;8.13;;
81864;SDS011;71313;43.514;1.500;2023-09-07T10:10:36;15.40;;;9.23;;
81864;SDS011;71313;43.514;1.500;2023-09-07T10:13:02;19.63;;;10.77;;
81864;SDS011;71313;43.514;1.500;2023-09-07T10:15:29;19.67;;;10.60;;
81864;SDS011;71313;43.514;1.500;2023-09-07T10:23:35;10.88;;;6.60;;
81864;SDS011;71313;43.514;1.500;2023-09-07T10:26:02;8.90;;;5.53;;
81864;SDS011;71313;43.514;1.500;2023-09-07T10:28:32;9.18;;;5.35;;
81864;SDS011;71313;43.514;1.500;2023-09-07T10:31:07;10.43;;;5.10;;
81864;SDS011;71313;43.514;1.500;2023-09-07T10:33:38;8.95;;;4.70;;
81864;SDS011;71313;43.514;1.500;2023-09-07T10:36:04;8.13;;;4.82;;
81864;SDS011;71313;43.514;1.500;2023-09-07T10:38:34;7.65;;;4.55;;
81864;SDS011;71313;43.514;1.500;2023-09-07T10:41:03;8.55;;;4.72;;
81864;SDS011;71313;43.514;1.500;2023-09-07T10:43:30;9.18;;;4.63;;
81864;SDS011;71313;43.514;1.500;2023-09-07T10:45:56;7.72;;;4.43;;
81864;SDS011;71313;43.514;1.500;2023-09-07T10:48:26;9.90;;;4.22;;
81864;SDS011;71313;43.514;1.500;2023-09-07T10:50:54;7.22;;;4.35;;
81864;SDS011;71313;43.514;1.500;2023-09-07T10:53:26;8.90;;;4.88;;
81864;SDS011;71313;43.514;1.500;2023-09-07T10:55:54;8.38;;;4.35;;
81864;SDS011;71313;43.514;1.500;2023-09-07T10:58:54;6.32;;;4.25;;
81864;SDS011;71313;43.514;1.500;2023-09-07T11:01:16;5.72;;;3.60;;
81864;SDS011;71313;43.514;1.500;2023-09-07T11:03:41;7.78;;;3.70;;
81864;SDS011;71313;43.514;1.500;2023-09-07T11:06:08;6.07;;;3.33;;
81864;SDS011;71313;43.514;1.500;2023-09-07T11:08:37;6.57;;;3.22;;
81864;SDS011;71313;43.514;1.500;2023-09-07T11:11:03;8.57;;;3.50;;
81864;SDS011;71313;43.514;1.500;2023-09-07T11:13:28;7.63;;;3.30;;
81864;SDS011;71313;43.514;1.500;2023-09-07T11:15:56;8.45;;;3.60;;
81864;SDS011;71313;43.514;1.500;2023-09-07T11:18:23;5.97;;;3.28;;
81864;SDS011;71313;43.514;1.500;2023-09-07T11:20:50;5.57;;;3.30;;
81864;SDS011;71313;43.514;1.500;2023-09-07T11:23:19;7.28;;;3.90;;
81864;SDS011;71313;43.514;1.500;2023-09-07T11:25:46;4.10;;;2.92;;
81864;SDS011;71313;43.514;1.500;2023-09-07T11:28:12;5.97;;;3.28;;
81864;SDS011;71313;43.514;1.500;2023-09-07T11:30:50;4.80;;;3.20;;
81864;SDS011;71313;43.514;1.500;2023-09-07T11:33:20;5.25;;;2.95;;
81864;SDS011;71313;43.514;1.500;2023-09-07T11:35:46;6.35;;;3.13;;
81864;SDS011;71313;43.514;1.500;2023-09-07T11:38:12;4.97;;;3.08;;
81864;SDS011;71313;43.514;1.500;2023-09-07T11:40:39;4.22;;;3.20;;
81864;SDS011;71313;43.514;1.500;2023-09-07T11:43:05;6.10;;;3.10;;
81864;SDS011;71313;43.514;1.500;2023-09-07T11:45:30;5.45;;;3.70;;
81864;SDS011;71313;43.514;1.500;2023-09-07T11:47:57;7.40;;;3.78;;
81864;SDS011;71313;43.514;1.500;2023-09-07T11:50:23;5.20;;;3.90;;
81864;SDS011;71313;43.514;1.500;2023-09-07T11:52:49;4.85;;;3.55;;
81864;SDS011;71313;43.514;1.500;2023-09-07T11:55:15;5.88;;;3.95;;
81864;SDS011;71313;43.514;1.500;2023-09-07T11:57:41;6.32;;;4.13;;
81864;SDS011;71313;43.514;1.500;2023-09-07T12:00:06;7.10;;;4.75;;
81864;SDS011;71313;43.514;1.500;2023-09-07T12:02:34;5.68;;;4.15;;
81864;SDS011;71313;43.514;1.500;2023-09-07T12:05:00;5.38;;;4.00;;
81864;SDS011;71313;43.514;1.500;2023-09-07T12:07:25;9.43;;;5.05;;
81864;SDS011;71313;43.514;1.500;2023-09-07T12:09:51;6.93;;;4.55;;
81864;SDS011;71313;43.514;1.500;2023-09-07T12:12:16;8.88;;;4.80;;
81864;SDS011;71313;43.514;1.500;2023-09-07T12:14:41;7.43;;;5.30;;
81864;SDS011;71313;43.514;1.500;2023-09-07T12:17:07;6.93;;;4.70;;
81864;SDS011;71313;43.514;1.500;2023-09-07T12:19:32;7.03;;;4.68;;
81864;SDS011;71313;43.514;1.500;2023-09-07T12:21:58;6.80;;;4.30;;
81864;SDS011;71313;43.514;1.500;2023-09-07T12:24:23;7.57;;;4.80;;
81864;SDS011;71313;43.514;1.500;2023-09-07T12:26:49;6.55;;;4.63;;
81864;SDS011;71313;43.514;1.500;2023-09-07T12:29:14;6.30;;;4.45;;
81864;SDS011;71313;43.514;1.500;2023-09-07T12:31:40;6.47;;;4.07;;
81864;SDS011;71313;43.514;1.500;2023-09-07T12:34:05;5.47;;;3.90;;
81864;SDS011;71313;43.514;1.500;2023-09-07T12:36:30;6.40;;;4.43;;
81864;SDS011;71313;43.514;1.500;2023-09-07T12:38:56;6.32;;;4.45;;
81864;SDS011;71313;43.514;1.500;2023-09-07T12:41:29;6.40;;;4.35;;
81864;SDS011;71313;43.514;1.500;2023-09-07T12:43:55;8.20;;;4.30;;
81864;SDS011;71313;43.514;1.500;2023-09-07T12:46:21;7.32;;;4.97;;
81864;SDS011;71313;43.514;1.500;2023-09-07T12:48:46;7.07;;;5.05;;
81864;SDS011;71313;43.514;1.500;2023-09-07T12:51:12;5.95;;;4.55;;
81864;SDS011;71313;43.514;1.500;2023-09-07T12:53:37;7.43;;;4.80;;
81864;SDS011;71313;43.514;1.500;2023-09-07T12:56:03;5.20;;;4.05;;
81864;SDS011;71313;43.514;1.500;2023-09-07T12:58:29;5.90;;;4.28;;
81864;SDS011;71313;43.514;1.500;2023-09-07T13:00:54;5.78;;;3.42;;
81864;SDS011;71313;43.514;1.500;2023-09-07T13:03:19;5.60;;;3.28;;
81864;SDS011;71313;43.514;1.500;2023-09-07T13:05:45;6.53;;;3.13;;
81864;SDS011;71313;43.514;1.500;2023-09-07T13:08:10;6.60;;;3.40;;
81864;SDS011;71313;43.514;1.500;2023-09-07T13:10:36;6.18;;;3.53;;
81864;SDS011;71313;43.514;1.500;2023-09-07T13:13:01;7.03;;;3.85;;
81864;SDS011;71313;43.514;1.500;2023-09-07T13:15:27;6.75;;;3.85;;
81864;SDS011;71313;43.514;1.500;2023-09-07T13:17:52;7.55;;;4.00;;
81864;SDS011;71313;43.514;1.500;2023-09-07T13:20:18;6.68;;;4.40;;
81864;SDS011;71313;43.514;1.500;2023-09-07T13:22:44;6.63;;;4.20;;
81864;SDS011;71313;43.514;1.500;2023-09-07T13:25:11;7.13;;;4.30;;
81864;SDS011;71313;43.514;1.500;2023-09-07T13:27:37;5.38;;;4.18;;
81864;SDS011;71313;43.514;1.500;2023-09-07T13:30:02;6.18;;;4.32;;
81864;SDS011;71313;43.514;1.500;2023-09-07T13:32:29;7.45;;;4.35;;
81864;SDS011;71313;43.514;1.500;2023-09-07T13:34:55;7.32;;;4.43;;
81864;SDS011;71313;43.514;1.500;2023-09-07T13:37:20;6.95;;;4.40;;
81864;SDS011;71313;43.514;1.500;2023-09-07T13:39:46;6.95;;;4.30;;
81864;SDS011;71313;43.514;1.500;2023-09-07T13:42:11;6.63;;;4.07;;
81864;SDS011;71313;43.514;1.500;2023-09-07T13:44:36;6.90;;;4.30;;
81864;SDS011;71313;43.514;1.500;2023-09-07T13:47:02;6.93;;;4.70;;
81864;SDS011;71313;43.514;1.500;2023-09-07T13:49:27;6.43;;;4.70;;
81864;SDS011;71313;43.514;1.500;2023-09-07T13:51:53;7.25;;;4.60;;
81864;SDS011;71313;43.514;1.500;2023-09-07T13:54:18;6.97;;;4.03;;
81864;SDS011;71313;43.514;1.500;2023-09-07T13:56:44;7.55;;;4.88;;
81864;SDS011;71313;43.514;1.500;2023-09-07T13:59:11;7.47;;;4.72;;
81864;SDS011;71313;43.514;1.500;2023-09-07T14:01:37;7.32;;;4.57;;
81864;SDS011;71313;43.514;1.500;2023-09-07T14:04:02;6.82;;;4.53;;
81864;SDS011;71313;43.514;1.500;2023-09-07T14:06:28;6.93;;;4.55;;
81864;SDS011;71313;43.514;1.500;2023-09-07T14:08:54;8.48;;;4.80;;
81864;SDS011;71313;43.514;1.500;2023-09-07T14:11:19;9.10;;;4.97;;
81864;SDS011;71313;43.514;1.500;2023-09-07T14:13:46;7.40;;;4.70;;
81864;SDS011;71313;43.514;1.500;2023-09-07T14:16:12;6.75;;;4.43;;
81864;SDS011;71313;43.514;1.500;2023-09-07T14:18:38;5.65;;;4.25;;
81864;SDS011;71313;43.514;1.500;2023-09-07T14:21:04;5.85;;;4.18;;
81864;SDS011;71313;43.514;1.500;2023-09-07T14:23:29;6.65;;;4.25;;
81864;SDS011;71313;43.514;1.500;2023-09-07T14:25:55;6.90;;;4.72;;
81864;SDS011;71313;43.514;1.500;2023-09-07T14:28:20;6.15;;;4.30;;
81864;SDS011;71313;43.514;1.500;2023-09-07T14:30:46;6.72;;;4.05;;
81864;SDS011;71313;43.514;1.500;2023-09-07T14:33:12;5.65;;;4.07;;
81864;SDS011;71313;43.514;1.500;2023-09-07T14:35:37;5.30;;;3.53;;
81864;SDS011;71313;43.514;1.500;2023-09-07T14:38:03;6.88;;;4.10;;
81864;SDS011;71313;43.514;1.500;2023-09-07T14:40:28;7.38;;;4.18;;
81864;SDS011;71313;43.514;1.500;2023-09-07T14:42:54;8.63;;;4.32;;
81864;SDS011;71313;43.514;1.500;2023-09-07T14:45:22;7.20;;;4.25;;
81864;SDS011;71313;43.514;1.500;2023-09-07T14:47:47;8.02;;;4.57;;